sensor_id;sensor_type;location;lat;lon;timestamp;pressure;altitude;pressure_sealevel;temperature;humidity
79362;BME280;68830;47.566;19.012;2023-04-03T00:00:31;99829.97;;;7.52;57.95
79362;BME280;68830;47.566;19.012;2023-04-03T00:03:34;99835.25;;;7.52;57.53
79362;BME280;68830;47.566;19.012;2023-04-03T00:06:37;99838.56;;;7.54;57.13
79362;BME280;68830;47.566;19.012;2023-04-03T00:09:39;99838.84;;;7.51;57.96
79362;BME280;68830;47.566;19.012;2023-04-03T00:12:41;99828.81;;;7.45;57.40
79362;BME280;68830;47.566;19.012;2023-04-03T00:15:43;99834.78;;;7.47;57.09
79362;BME280;68830;47.566;19.012;2023-04-03T00:18:46;99835.75;;;7.46;56.83
79362;BME280;68830;47.566;19.012;2023-04-03T00:21:48;99839.22;;;7.46;57.17
79362;BME280;68830;47.566;19.012;2023-04-03T00:24:51;99839.22;;;7.46;57.64
79362;BME280;68830;47.566;19.012;2023-04-03T00:27:53;99838.94;;;7.49;57.60
79362;BME280;68830;47.566;19.012;2023-04-03T00:30:55;99841.72;;;7.48;57.48
79362;BME280;68830;47.566;19.012;2023-04-03T00:33:59;99845.78;;;7.52;57.13
79362;BME280;68830;47.566;19.012;2023-04-03T00:37:01;99848.56;;;7.51;57.33
79362;BME280;68830;47.566;19.012;2023-04-03T00:40:05;99851.88;;;7.53;57.78
79362;BME280;68830;47.566;19.012;2023-04-03T00:43:11;99849.13;;;7.54;57.75
79362;BME280;68830;47.566;19.012;2023-04-03T00:46:14;99850.44;;;7.48;56.41
79362;BME280;68830;47.566;19.012;2023-04-03T00:49:18;99858.63;;;7.45;56.12
79362;BME280;68830;47.566;19.012;2023-04-03T00:52:23;99862.22;;;7.44;56.24
79362;BME280;68830;47.566;19.012;2023-04-03T00:55:27;99867.50;;;7.44;56.94
79362;BME280;68830;47.566;19.012;2023-04-03T00:58:34;99865.69;;;7.45;56.61
79362;BME280;68830;47.566;19.012;2023-04-03T01:01:39;99865.19;;;7.51;55.76
79362;BME280;68830;47.566;19.012;2023-04-03T01:04:43;99855.84;;;7.47;56.27
79362;BME280;68830;47.566;19.012;2023-04-03T01:07:46;99868.47;;;7.43;56.36
79362;BME280;68830;47.566;19.012;2023-04-03T01:10:49;99866.78;;;7.42;57.03
79362;BME280;68830;47.566;19.012;2023-04-03T01:13:52;99871.94;;;7.44;56.70
79362;BME280;68830;47.566;19.012;2023-04-03T01:16:54;99860.41;;;7.35;56.97
79362;BME280;68830;47.566;19.012;2023-04-03T01:20:13;99873.31;;;7.38;55.86
79362;BME280;68830;47.566;19.012;2023-04-03T01:23:31;99874.41;;;7.36;56.83
79362;BME280;68830;47.566;19.012;2023-04-03T01:26:36;99873.66;;;7.34;57.02
79362;BME280;68830;47.566;19.012;2023-04-03T01:29:40;99866.88;;;7.31;56.67
79362;BME280;68830;47.566;19.012;2023-04-03T01:32:44;99871.56;;;7.28;56.68
79362;BME280;68830;47.566;19.012;2023-04-03T01:35:47;99868.22;;;7.26;57.02
79362;BME280;68830;47.566;19.012;2023-04-03T01:38:49;99861.91;;;7.17;57.40
79362;BME280;68830;47.566;19.012;2023-04-03T01:41:51;99870.22;;;7.12;57.52
79362;BME280;68830;47.566;19.012;2023-04-03T01:44:54;99874.13;;;7.18;56.48
79362;BME280;68830;47.566;19.012;2023-04-03T01:47:57;99880.19;;;7.09;56.59
79362;BME280;68830;47.566;19.012;2023-04-03T01:51:00;99879.34;;;7.08;57.86
79362;BME280;68830;47.566;19.012;2023-04-03T01:54:02;99874.56;;;7.02;56.74
79362;BME280;68830;47.566;19.012;2023-04-03T01:57:04;99878.78;;;7.05;56.66
79362;BME280;68830;47.566;19.012;2023-04-03T02:00:08;99876.38;;;7.02;56.86
79362;BME280;68830;47.566;19.012;2023-04-03T02:03:11;99877.34;;;7.01;57.70
79362;BME280;68830;47.566;19.012;2023-04-03T02:06:14;99873.16;;;6.98;57.82
79362;BME280;68830;47.566;19.012;2023-04-03T02:09:17;99890.06;;;6.96;57.37
79362;BME280;68830;47.566;19.012;2023-04-03T02:12:19;99889.63;;;6.91;57.45
79362;BME280;68830;47.566;19.012;2023-04-03T02:15:22;99874.31;;;6.84;57.57
79362;BME280;68830;47.566;19.012;2023-04-03T02:18:25;99884.44;;;6.89;56.54
79362;BME280;68830;47.566;19.012;2023-04-03T02:21:27;99877.78;;;6.85;56.32
79362;BME280;68830;47.566;19.012;2023-04-03T02:24:30;99890.22;;;6.83;56.79
79362;BME280;68830;47.566;19.012;2023-04-03T02:27:32;99895.84;;;7.10;56.61
79362;BME280;68830;47.566;19.012;2023-04-03T02:30:34;99896.22;;;7.27;55.19
79362;BME280;68830;47.566;19.012;2023-04-03T02:33:38;99902.66;;;7.13;56.52
79362;BME280;68830;47.566;19.012;2023-04-03T02:36:40;99891.47;;;7.00;56.56
79362;BME280;68830;47.566;19.012;2023-04-03T02:39:43;99895.84;;;7.10;55.93
79362;BME280;68830;47.566;19.012;2023-04-03T02:42:45;99896.50;;;7.24;56.88
79362;BME280;68830;47.566;19.012;2023-04-03T02:45:47;99906.28;;;7.01;55.98
79362;BME280;68830;47.566;19.012;2023-04-03T02:48:51;99895.38;;;6.84;56.90
79362;BME280;68830;47.566;19.012;2023-04-03T02:51:53;99898.75;;;7.07;56.02
79362;BME280;68830;47.566;19.012;2023-04-03T02:54:55;99898.56;;;7.20;56.69
79362;BME280;68830;47.566;19.012;2023-04-03T02:57:57;99903.56;;;7.23;56.24
79362;BME280;68830;47.566;19.012;2023-04-03T03:00:59;99902.97;;;7.19;56.55
79362;BME280;68830;47.566;19.012;2023-04-03T03:04:03;99907.03;;;7.24;54.92
79362;BME280;68830;47.566;19.012;2023-04-03T03:07:05;99891.28;;;7.12;55.70
79362;BME280;68830;47.566;19.012;2023-04-03T03:10:08;99897.59;;;7.21;54.79
79362;BME280;68830;47.566;19.012;2023-04-03T03:13:10;99908.22;;;7.19;55.05
79362;BME280;68830;47.566;19.012;2023-04-03T03:16:12;99899.50;;;7.19;56.45
79362;BME280;68830;47.566;19.012;2023-04-03T03:19:16;99899.75;;;7.16;56.01
79362;BME280;68830;47.566;19.012;2023-04-03T03:22:18;99896.69;;;7.11;55.49
79362;BME280;68830;47.566;19.012;2023-04-03T03:25:20;99911.25;;;7.15;55.31
79362;BME280;68830;47.566;19.012;2023-04-03T03:28:22;99910.41;;;7.14;55.53
79362;BME280;68830;47.566;19.012;2023-04-03T03:31:24;99908.88;;;7.12;56.82
79362;BME280;68830;47.566;19.012;2023-04-03T03:34:28;99903.88;;;7.09;55.93
79362;BME280;68830;47.566;19.012;2023-04-03T03:37:30;99900.28;;;7.10;55.57
79362;BME280;68830;47.566;19.012;2023-04-03T03:40:32;99904.72;;;7.09;57.83
79362;BME280;68830;47.566;19.012;2023-04-03T03:43:34;99891.59;;;6.98;57.57
79362;BME280;68830;47.566;19.012;2023-04-03T03:46:36;99899.63;;;6.97;58.07
79362;BME280;68830;47.566;19.012;2023-04-03T03:49:41;99905.41;;;6.91;57.09
79362;BME280;68830;47.566;19.012;2023-04-03T03:52:43;99902.28;;;6.85;56.44
79362;BME280;68830;47.566;19.012;2023-04-03T03:55:47;99895.88;;;6.78;57.48
79362;BME280;68830;47.566;19.012;2023-04-03T03:58:49;99900.66;;;6.73;56.96
79362;BME280;68830;47.566;19.012;2023-04-03T04:01:51;99907.72;;;6.73;57.45
79362;BME280;68830;47.566;19.012;2023-04-03T04:04:56;99904.63;;;6.68;57.06
79362;BME280;68830;47.566;19.012;2023-04-03T04:07:58;99897.38;;;6.60;58.65
79362;BME280;68830;47.566;19.012;2023-04-03T04:10:59;99910.03;;;6.66;57.59
79362;BME280;68830;47.566;19.012;2023-04-03T04:14:02;99906.81;;;6.63;57.67
79362;BME280;68830;47.566;19.012;2023-04-03T04:17:04;99909.09;;;6.56;57.73
79362;BME280;68830;47.566;19.012;2023-04-03T04:20:10;99911.16;;;6.52;57.94
79362;BME280;68830;47.566;19.012;2023-04-03T04:23:12;99873.69;;;6.28;57.13
79362;BME280;68830;47.566;19.012;2023-04-03T04:26:14;99922.06;;;6.37;57.33
79362;BME280;68830;47.566;19.012;2023-04-03T04:29:16;99925.78;;;6.34;58.69
79362;BME280;68830;47.566;19.012;2023-04-03T04:32:18;99931.16;;;6.33;58.26
79362;BME280;68830;47.566;19.012;2023-04-03T04:35:21;99930.53;;;6.40;57.81
79362;BME280;68830;47.566;19.012;2023-04-03T04:38:24;99922.53;;;6.42;58.05
79362;BME280;68830;47.566;19.012;2023-04-03T04:41:26;99914.69;;;6.31;58.48
79362;BME280;68830;47.566;19.012;2023-04-03T04:44:28;99935.19;;;6.48;57.91
79362;BME280;68830;47.566;19.012;2023-04-03T04:47:30;99935.66;;;6.53;56.88
79362;BME280;68830;47.566;19.012;2023-04-03T04:50:33;99933.97;;;6.63;58.63
79362;BME280;68830;47.566;19.012;2023-04-03T04:53:36;99935.06;;;6.61;58.34
79362;BME280;68830;47.566;19.012;2023-04-03T04:56:38;99931.94;;;6.55;58.13
79362;BME280;68830;47.566;19.012;2023-04-03T04:59:40;99922.88;;;6.59;58.46
79362;BME280;68830;47.566;19.012;2023-04-03T05:02:42;99936.50;;;6.53;57.80
79362;BME280;68830;47.566;19.012;2023-04-03T05:05:46;99936.50;;;6.53;57.62
79362;BME280;68830;47.566;19.012;2023-04-03T05:08:47;99936.41;;;6.44;57.88
79362;BME280;68830;47.566;19.012;2023-04-03T05:11:49;99936.75;;;6.39;57.67
79362;BME280;68830;47.566;19.012;2023-04-03T05:14:51;99946.56;;;6.48;58.48
79362;BME280;68830;47.566;19.012;2023-04-03T05:17:53;99941.03;;;6.51;57.23
79362;BME280;68830;47.566;19.012;2023-04-03T05:20:57;99937.13;;;6.46;57.17
79362;BME280;68830;47.566;19.012;2023-04-03T05:24:01;99948.91;;;6.63;58.16
79362;BME280;68830;47.566;19.012;2023-04-03T05:27:04;99951.81;;;6.59;56.84
79362;BME280;68830;47.566;19.012;2023-04-03T05:30:08;99958.00;;;6.58;57.53
79362;BME280;68830;47.566;19.012;2023-04-03T05:33:10;99953.59;;;6.59;57.90
79362;BME280;68830;47.566;19.012;2023-04-03T05:36:13;99950.09;;;6.58;57.76
79362;BME280;68830;47.566;19.012;2023-04-03T05:39:16;99947.25;;;6.62;57.68
79362;BME280;68830;47.566;19.012;2023-04-03T05:42:18;99950.00;;;6.60;56.99
79362;BME280;68830;47.566;19.012;2023-04-03T05:45:20;99952.84;;;6.57;57.72
79362;BME280;68830;47.566;19.012;2023-04-03T05:48:22;99958.50;;;6.52;58.42
79362;BME280;68830;47.566;19.012;2023-04-03T05:51:29;99965.06;;;6.58;58.25
79362;BME280;68830;47.566;19.012;2023-04-03T05:54:32;99956.53;;;6.77;56.80
79362;BME280;68830;47.566;19.012;2023-04-03T05:57:34;99956.06;;;7.04;56.44
79362;BME280;68830;47.566;19.012;2023-04-03T06:00:36;99959.56;;;7.25;55.84
79362;BME280;68830;47.566;19.012;2023-04-03T06:03:38;99898.91;;;5.52;60.90
79362;BME280;68830;47.566;19.012;2023-04-03T06:06:46;99910.44;;;5.38;61.30
79362;BME280;68830;47.566;19.012;2023-04-03T06:09:48;99914.91;;;5.14;62.71
79362;BME280;68830;47.566;19.012;2023-04-03T06:12:51;99916.81;;;5.12;63.62
79362;BME280;68830;47.566;19.012;2023-04-03T06:15:53;99898.19;;;5.04;63.24
79362;BME280;68830;47.566;19.012;2023-04-03T06:18:55;99917.78;;;5.11;63.99
79362;BME280;68830;47.566;19.012;2023-04-03T06:21:59;99889.22;;;5.42;61.43
79362;BME280;68830;47.566;19.012;2023-04-03T06:25:02;99898.78;;;5.87;59.78
79362;BME280;68830;47.566;19.012;2023-04-03T06:28:04;99897.59;;;6.14;60.03
79362;BME280;68830;47.566;19.012;2023-04-03T06:31:06;99968.19;;;6.41;59.17
79362;BME280;68830;47.566;19.012;2023-04-03T06:34:08;99973.19;;;7.30;55.93
79362;BME280;68830;47.566;19.012;2023-04-03T06:37:14;99975.53;;;7.96;55.44
79362;BME280;68830;47.566;19.012;2023-04-03T06:40:20;99978.94;;;8.38;53.30
79362;BME280;68830;47.566;19.012;2023-04-03T06:43:23;99977.91;;;8.69;51.97
79362;BME280;68830;47.566;19.012;2023-04-03T06:46:26;99972.13;;;8.95;50.49
79362;BME280;68830;47.566;19.012;2023-04-03T06:49:29;99964.06;;;9.16;51.50
79362;BME280;68830;47.566;19.012;2023-04-03T06:52:32;99981.75;;;9.25;49.50
79362;BME280;68830;47.566;19.012;2023-04-03T06:55:35;99981.44;;;9.28;49.44
79362;BME280;68830;47.566;19.012;2023-04-03T06:58:38;99987.44;;;9.40;50.32
79362;BME280;68830;47.566;19.012;2023-04-03T07:01:40;99975.91;;;9.21;49.61
79362;BME280;68830;47.566;19.012;2023-04-03T07:04:43;99976.63;;;8.14;53.17
79362;BME280;68830;47.566;19.012;2023-04-03T07:07:46;99983.09;;;7.59;53.55
79362;BME280;68830;47.566;19.012;2023-04-03T07:10:48;99993.81;;;7.46;53.92
79362;BME280;68830;47.566;19.012;2023-04-03T07:13:52;99992.47;;;7.31;55.07
79362;BME280;68830;47.566;19.012;2023-04-03T07:16:54;99986.75;;;7.26;55.44
79362;BME280;68830;47.566;19.012;2023-04-03T07:19:57;100001.59;;;7.27;56.20
79362;BME280;68830;47.566;19.012;2023-04-03T07:23:00;99990.84;;;7.18;55.73
79362;BME280;68830;47.566;19.012;2023-04-03T07:26:05;99969.19;;;7.15;55.34
79362;BME280;68830;47.566;19.012;2023-04-03T07:29:08;99994.00;;;7.33;55.54
79362;BME280;68830;47.566;19.012;2023-04-03T07:32:11;99994.97;;;7.32;54.85
79362;BME280;68830;47.566;19.012;2023-04-03T07:35:13;99997.25;;;7.37;54.37
79362;BME280;68830;47.566;19.012;2023-04-03T07:38:17;100001.47;;;7.49;55.85
79362;BME280;68830;47.566;19.012;2023-04-03T07:41:19;99994.66;;;7.46;55.08
79362;BME280;68830;47.566;19.012;2023-04-03T07:44:24;100003.03;;;7.52;54.88
79362;BME280;68830;47.566;19.012;2023-04-03T07:47:26;100008.50;;;7.60;54.65
79362;BME280;68830;47.566;19.012;2023-04-03T07:50:29;100006.19;;;7.66;54.44
79362;BME280;68830;47.566;19.012;2023-04-03T07:53:34;100007.06;;;7.76;53.87
79362;BME280;68830;47.566;19.012;2023-04-03T07:56:36;100005.00;;;7.80;51.16
79362;BME280;68830;47.566;19.012;2023-04-03T07:59:38;100010.34;;;7.90;51.64
79362;BME280;68830;47.566;19.012;2023-04-03T08:02:41;100001.00;;;8.06;50.11
79362;BME280;68830;47.566;19.012;2023-04-03T08:05:44;100002.81;;;8.06;49.65
79362;BME280;68830;47.566;19.012;2023-04-03T08:08:48;100002.44;;;8.20;49.48
79362;BME280;68830;47.566;19.012;2023-04-03T08:11:50;100004.97;;;8.52;49.61
79362;BME280;68830;47.566;19.012;2023-04-03T08:14:54;100005.47;;;8.77;50.47
79362;BME280;68830;47.566;19.012;2023-04-03T08:17:57;99976.53;;;8.65;48.69
79362;BME280;68830;47.566;19.012;2023-04-03T08:20:59;100012.94;;;8.72;47.27
79362;BME280;68830;47.566;19.012;2023-04-03T08:24:03;99992.13;;;8.78;48.27
79362;BME280;68830;47.566;19.012;2023-04-03T08:27:05;100017.78;;;8.66;46.89
79362;BME280;68830;47.566;19.012;2023-04-03T08:30:08;100006.41;;;8.66;48.44
79362;BME280;68830;47.566;19.012;2023-04-03T08:33:10;100001.28;;;8.74;48.06
79362;BME280;68830;47.566;19.012;2023-04-03T08:36:21;100005.22;;;9.09;49.95
79362;BME280;68830;47.566;19.012;2023-04-03T08:39:24;100015.91;;;8.97;48.21
79362;BME280;68830;47.566;19.012;2023-04-03T08:42:38;100020.38;;;8.97;48.58
79362;BME280;68830;47.566;19.012;2023-04-03T08:45:45;100017.25;;;8.73;46.51
79362;BME280;68830;47.566;19.012;2023-04-03T08:48:49;100018.25;;;8.81;46.55
79362;BME280;68830;47.566;19.012;2023-04-03T08:51:54;99986.88;;;8.38;47.17
79362;BME280;68830;47.566;19.012;2023-04-03T08:55:00;100014.34;;;8.76;47.33
79362;BME280;68830;47.566;19.012;2023-04-03T08:58:05;100004.13;;;9.11;47.51
79362;BME280;68830;47.566;19.012;2023-04-03T09:01:17;100002.19;;;9.52;48.55
79362;BME280;68830;47.566;19.012;2023-04-03T09:04:21;100002.03;;;9.44;44.85
79362;BME280;68830;47.566;19.012;2023-04-03T09:07:31;100008.41;;;9.03;45.74
79362;BME280;68830;47.566;19.012;2023-04-03T09:10:38;99975.91;;;9.12;46.79
79362;BME280;68830;47.566;19.012;2023-04-03T09:13:49;99989.38;;;9.28;45.69
79362;BME280;68830;47.566;19.012;2023-04-03T09:16:56;100007.31;;;9.05;46.67
79362;BME280;68830;47.566;19.012;2023-04-03T09:20:09;100006.63;;;9.42;46.78
79362;BME280;68830;47.566;19.012;2023-04-03T09:23:19;100019.13;;;9.49;47.48
79362;BME280;68830;47.566;19.012;2023-04-03T09:26:29;100024.28;;;9.61;46.02
79362;BME280;68830;47.566;19.012;2023-04-03T09:29:37;100017.63;;;9.27;46.44
79362;BME280;68830;47.566;19.012;2023-04-03T09:32:40;100015.78;;;9.18;45.65
79362;BME280;68830;47.566;19.012;2023-04-03T09:35:43;100017.91;;;9.24;47.65
79362;BME280;68830;47.566;19.012;2023-04-03T09:39:02;100019.16;;;9.20;46.64
79362;BME280;68830;47.566;19.012;2023-04-03T09:42:14;100022.19;;;9.06;46.57
79362;BME280;68830;47.566;19.012;2023-04-03T09:45:23;100017.19;;;9.13;46.83
79362;BME280;68830;47.566;19.012;2023-04-03T09:48:25;100010.22;;;9.02;44.30
79362;BME280;68830;47.566;19.012;2023-04-03T09:51:30;100012.19;;;9.19;46.20
79362;BME280;68830;47.566;19.012;2023-04-03T09:54:35;100016.34;;;9.12;46.23
79362;BME280;68830;47.566;19.012;2023-04-03T09:57:41;100014.41;;;9.34;46.82
79362;BME280;68830;47.566;19.012;2023-04-03T10:00:43;100009.69;;;9.37;45.67
79362;BME280;68830;47.566;19.012;2023-04-03T10:03:45;100016.66;;;9.38;46.10
79362;BME280;68830;47.566;19.012;2023-04-03T10:06:50;100010.13;;;9.52;45.32
79362;BME280;68830;47.566;19.012;2023-04-03T10:09:55;100005.66;;;9.33;44.34
79362;BME280;68830;47.566;19.012;2023-04-03T10:13:07;100012.47;;;9.36;43.35
79362;BME280;68830;47.566;19.012;2023-04-03T10:16:16;100011.06;;;9.32;44.59
79362;BME280;68830;47.566;19.012;2023-04-03T10:19:34;100020.53;;;9.34;44.32
79362;BME280;68830;47.566;19.012;2023-04-03T10:22:43;100014.44;;;9.24;45.63
79362;BME280;68830;47.566;19.012;2023-04-03T10:25:55;100017.06;;;9.53;48.62
79362;BME280;68830;47.566;19.012;2023-04-03T10:29:10;100009.00;;;9.25;45.32
79362;BME280;68830;47.566;19.012;2023-04-03T10:32:45;100010.38;;;9.29;46.73
79362;BME280;68830;47.566;19.012;2023-04-03T10:35:59;100016.66;;;9.38;46.93
79362;BME280;68830;47.566;19.012;2023-04-03T10:39:12;100003.84;;;9.34;45.85
79362;BME280;68830;47.566;19.012;2023-04-03T10:42:23;100004.13;;;9.31;46.41
79362;BME280;68830;47.566;19.012;2023-04-03T10:45:44;100024.84;;;9.25;46.69
79362;BME280;68830;47.566;19.012;2023-04-03T10:49:00;100013.88;;;9.20;45.30
79362;BME280;68830;47.566;19.012;2023-04-03T10:52:07;100013.44;;;9.15;44.93
79362;BME280;68830;47.566;19.012;2023-04-03T10:55:23;99993.97;;;9.16;45.70
79362;BME280;68830;47.566;19.012;2023-04-03T10:58:29;100011.91;;;9.22;45.95
79362;BME280;68830;47.566;19.012;2023-04-03T11:01:38;100002.31;;;9.41;47.42
79362;BME280;68830;47.566;19.012;2023-04-03T11:04:44;100008.03;;;9.36;46.52
79362;BME280;68830;47.566;19.012;2023-04-03T11:07:51;100010.09;;;9.42;46.14
79362;BME280;68830;47.566;19.012;2023-04-03T11:10:58;100012.03;;;9.31;46.01
79362;BME280;68830;47.566;19.012;2023-04-03T11:14:03;99996.63;;;9.36;45.70
79362;BME280;68830;47.566;19.012;2023-04-03T11:17:19;100002.88;;;9.44;47.11
79362;BME280;68830;47.566;19.012;2023-04-03T11:20:28;100011.91;;;9.42;46.06
79362;BME280;68830;47.566;19.012;2023-04-03T11:23:36;100004.00;;;9.51;44.44
79362;BME280;68830;47.566;19.012;2023-04-03T11:26:51;100011.09;;;9.41;43.08
79362;BME280;68830;47.566;19.012;2023-04-03T11:29:54;99999.38;;;9.34;43.02
79362;BME280;68830;47.566;19.012;2023-04-03T11:33:36;99999.38;;;9.63;45.75
79362;BME280;68830;47.566;19.012;2023-04-03T11:36:41;99994.22;;;9.62;45.21
79362;BME280;68830;47.566;19.012;2023-04-03T11:39:52;99992.31;;;9.35;45.22
79362;BME280;68830;47.566;19.012;2023-04-03T11:43:04;99995.19;;;9.61;44.25
79362;BME280;68830;47.566;19.012;2023-04-03T11:46:07;99974.38;;;9.38;44.90
79362;BME280;68830;47.566;19.012;2023-04-03T11:53:02;99982.84;;;9.51;42.65
79362;BME280;68830;47.566;19.012;2023-04-03T11:56:27;99983.53;;;9.53;43.82
79362;BME280;68830;47.566;19.012;2023-04-03T11:59:37;99972.56;;;9.39;43.32
79362;BME280;68830;47.566;19.012;2023-04-03T12:02:40;99982.00;;;9.41;43.48
79362;BME280;68830;47.566;19.012;2023-04-03T12:05:57;99961.41;;;9.54;43.51
79362;BME280;68830;47.566;19.012;2023-04-03T12:12:55;99980.06;;;9.53;44.76
79362;BME280;68830;47.566;19.012;2023-04-03T12:15:58;99978.53;;;9.50;42.80
79362;BME280;68830;47.566;19.012;2023-04-03T12:19:02;99980.34;;;9.40;43.05
79362;BME280;68830;47.566;19.012;2023-04-03T12:22:14;99974.34;;;9.48;45.10
79362;BME280;68830;47.566;19.012;2023-04-03T12:25:47;99978.94;;;9.46;46.32
79362;BME280;68830;47.566;19.012;2023-04-03T12:28:53;99981.72;;;9.44;43.98
79362;BME280;68830;47.566;19.012;2023-04-03T12:32:07;99969.47;;;9.43;44.34
79362;BME280;68830;47.566;19.012;2023-04-03T12:35:19;99971.16;;;9.44;42.25
79362;BME280;68830;47.566;19.012;2023-04-03T12:38:37;99961.13;;;9.57;44.02
79362;BME280;68830;47.566;19.012;2023-04-03T12:41:48;99966.13;;;9.61;42.60
79362;BME280;68830;47.566;19.012;2023-04-03T12:44:58;99958.56;;;9.75;42.79
79362;BME280;68830;47.566;19.012;2023-04-03T12:48:06;99964.38;;;9.98;44.03
79362;BME280;68830;47.566;19.012;2023-04-03T12:51:18;99951.53;;;9.94;43.55
79362;BME280;68830;47.566;19.012;2023-04-03T12:54:26;99940.56;;;9.88;42.74
79362;BME280;68830;47.566;19.012;2023-04-03T12:57:30;99952.72;;;9.81;42.60
79362;BME280;68830;47.566;19.012;2023-04-03T13:00:34;99949.25;;;9.71;43.65
79362;BME280;68830;47.566;19.012;2023-04-03T13:03:38;99956.06;;;9.74;42.58
79362;BME280;68830;47.566;19.012;2023-04-03T13:06:42;99945.94;;;9.69;44.43
79362;BME280;68830;47.566;19.012;2023-04-03T13:09:55;99946.75;;;9.70;42.04
79362;BME280;68830;47.566;19.012;2023-04-03T13:13:07;99938.25;;;9.76;43.26
79362;BME280;68830;47.566;19.012;2023-04-03T13:16:10;99944.06;;;9.79;42.19
79362;BME280;68830;47.566;19.012;2023-04-03T13:19:16;99923.13;;;9.58;42.83
79362;BME280;68830;47.566;19.012;2023-04-03T13:22:26;99928.22;;;9.79;42.96
79362;BME280;68830;47.566;19.012;2023-04-03T13:25:33;99930.47;;;9.74;42.48
79362;BME280;68830;47.566;19.012;2023-04-03T13:28:36;99924.41;;;9.92;43.14
79362;BME280;68830;47.566;19.012;2023-04-03T13:31:38;99930.69;;;9.91;42.46
79362;BME280;68830;47.566;19.012;2023-04-03T13:34:43;99931.16;;;10.13;43.98
79362;BME280;68830;47.566;19.012;2023-04-03T13:37:54;99918.50;;;10.07;42.12
79362;BME280;68830;47.566;19.012;2023-04-03T13:40:59;99908.75;;;10.08;41.88
79362;BME280;68830;47.566;19.012;2023-04-03T13:44:22;99928.78;;;10.10;41.94
79362;BME280;68830;47.566;19.012;2023-04-03T13:47:38;99923.50;;;10.10;42.99
79362;BME280;68830;47.566;19.012;2023-04-03T13:51:00;99920.59;;;10.04;42.08
79362;BME280;68830;47.566;19.012;2023-04-03T13:54:16;99918.19;;;10.10;42.71
79362;BME280;68830;47.566;19.012;2023-04-03T13:57:22;99914.28;;;10.24;43.20
79362;BME280;68830;47.566;19.012;2023-04-03T14:00:30;99906.66;;;10.11;41.08
79362;BME280;68830;47.566;19.012;2023-04-03T14:03:39;99905.53;;;10.14;41.95
79362;BME280;68830;47.566;19.012;2023-04-03T14:06:41;99888.41;;;10.08;41.75
79362;BME280;68830;47.566;19.012;2023-04-03T14:09:44;99897.59;;;10.14;41.38
79362;BME280;68830;47.566;19.012;2023-04-03T14:12:47;99887.00;;;10.14;42.92
79362;BME280;68830;47.566;19.012;2023-04-03T14:15:51;99889.31;;;9.99;41.01
79362;BME280;68830;47.566;19.012;2023-04-03T14:18:55;99901.09;;;10.05;42.25
79362;BME280;68830;47.566;19.012;2023-04-03T14:22:01;99890.69;;;10.03;42.83
79362;BME280;68830;47.566;19.012;2023-04-03T14:25:06;99889.41;;;10.07;42.96
79362;BME280;68830;47.566;19.012;2023-04-03T14:28:16;99888.69;;;10.15;42.45
79362;BME280;68830;47.566;19.012;2023-04-03T14:31:19;99890.78;;;10.11;41.67
79362;BME280;68830;47.566;19.012;2023-04-03T14:34:21;99867.88;;;9.93;43.59
79362;BME280;68830;47.566;19.012;2023-04-03T14:37:25;99879.75;;;9.88;39.81
79362;BME280;68830;47.566;19.012;2023-04-03T14:40:30;99899.25;;;9.87;42.94
79362;BME280;68830;47.566;19.012;2023-04-03T14:43:33;99879.75;;;9.88;42.89
79362;BME280;68830;47.566;19.012;2023-04-03T14:46:37;99896.16;;;9.92;42.68
79362;BME280;68830;47.566;19.012;2023-04-03T14:49:57;99905.28;;;10.07;45.75
79362;BME280;68830;47.566;19.012;2023-04-03T14:53:00;99917.66;;;10.07;42.10
79362;BME280;68830;47.566;19.012;2023-04-03T14:56:02;99907.09;;;10.07;42.23
79362;BME280;68830;47.566;19.012;2023-04-03T14:59:09;99896.63;;;10.15;43.38
79362;BME280;68830;47.566;19.012;2023-04-03T15:02:26;99908.19;;;9.77;43.69
79362;BME280;68830;47.566;19.012;2023-04-03T15:05:30;99911.84;;;9.66;42.38
79362;BME280;68830;47.566;19.012;2023-04-03T15:08:32;99907.63;;;9.73;43.17
79362;BME280;68830;47.566;19.012;2023-04-03T15:11:35;99916.03;;;9.59;43.20
79362;BME280;68830;47.566;19.012;2023-04-03T15:14:38;99906.56;;;9.56;42.39
79362;BME280;68830;47.566;19.012;2023-04-03T15:17:44;99912.16;;;9.53;43.07
79362;BME280;68830;47.566;19.012;2023-04-03T15:20:46;99919.84;;;9.37;42.00
79362;BME280;68830;47.566;19.012;2023-04-03T15:23:49;99913.28;;;9.32;43.97
79362;BME280;68830;47.566;19.012;2023-04-03T15:26:51;99911.78;;;9.29;43.14
79362;BME280;68830;47.566;19.012;2023-04-03T15:29:55;99907.91;;;9.14;43.19
79362;BME280;68830;47.566;19.012;2023-04-03T15:32:57;99907.34;;;9.20;43.11
79362;BME280;68830;47.566;19.012;2023-04-03T15:35:59;99896.53;;;9.04;42.96
79362;BME280;68830;47.566;19.012;2023-04-03T15:39:08;99891.94;;;8.96;42.93
79362;BME280;68830;47.566;19.012;2023-04-03T15:42:10;99916.66;;;8.95;42.88
79362;BME280;68830;47.566;19.012;2023-04-03T15:45:16;99910.97;;;8.90;43.53
79362;BME280;68830;47.566;19.012;2023-04-03T15:48:18;99908.88;;;8.84;44.88
79362;BME280;68830;47.566;19.012;2023-04-03T15:51:21;99912.50;;;8.83;43.03
79362;BME280;68830;47.566;19.012;2023-04-03T15:54:22;99892.91;;;8.76;43.80
79362;BME280;68830;47.566;19.012;2023-04-03T15:57:26;99900.81;;;8.76;43.44
79362;BME280;68830;47.566;19.012;2023-04-03T16:00:30;99894.41;;;8.68;41.35
79362;BME280;68830;47.566;19.012;2023-04-03T16:03:32;99911.38;;;8.66;42.94
79362;BME280;68830;47.566;19.012;2023-04-03T16:06:36;99907.19;;;8.63;42.76
79362;BME280;68830;47.566;19.012;2023-04-03T16:09:38;99921.91;;;8.56;44.14
79362;BME280;68830;47.566;19.012;2023-04-03T16:12:40;99942.19;;;8.56;43.28
79362;BME280;68830;47.566;19.012;2023-04-03T16:15:44;99931.75;;;8.54;43.88
79362;BME280;68830;47.566;19.012;2023-04-03T16:18:46;99938.03;;;8.63;42.38
79362;BME280;68830;47.566;19.012;2023-04-03T16:21:49;99935.38;;;8.53;44.86
79362;BME280;68830;47.566;19.012;2023-04-03T16:24:51;99933.81;;;8.41;46.45